Time;durP1;ratioP1;P1;durP2;ratioP2;P2;SDS_P1;SDS_P2;PMS_P1;PMS_P2;Temp;Humidity;BMP_temperature;BMP_pressure;BME280_temperature;BME280_humidity;BME280_pressure;Samples;Min_cycle;Max_cycle;Signal;HPM_P1;HPM_P2
2023/07/28 00:01:00;;;;;;;4.97;4.50;;;;;;;18.27;100.00;99558.88;5099998;28;20199;-84
2023/07/28 00:03:31;;;;;;;5.63;4.87;;;;;;;18.27;100.00;99566.97;5094568;28;20195;-86
2023/07/28 00:06:01;;;;;;;5.50;4.93;;;;;;;18.28;100.00;99566.78;5088088;28;21010;-84
2023/07/28 00:08:30;;;;;;;5.37;4.93;;;;;;;18.29;100.00;99564.91;5093689;28;20289;-84
2023/07/28 00:11:02;;;;;;;5.20;4.80;;;;;;;18.28;100.00;99566.78;5091735;28;20231;-85
2023/07/28 00:13:32;;;;;;;5.57;5.07;;;;;;;18.28;100.00;99579.41;5093005;28;20205;-84
2023/07/28 00:18:51;;;;;;;5.43;4.93;;;;;;;18.29;100.00;99581.09;5086604;28;20230;-84
2023/07/28 00:21:18;;;;;;;6.37;5.23;;;;;;;18.28;100.00;99572.16;5092857;28;20252;-84
2023/07/28 00:23:49;;;;;;;5.47;5.07;;;;;;;18.29;100.00;99586.47;5099261;28;20634;-83
2023/07/28 00:26:29;;;;;;;6.00;5.50;;;;;;;18.28;100.00;99568.63;5091696;28;20230;-84
2023/07/28 00:28:56;;;;;;;5.77;5.00;;;;;;;18.24;100.00;99568.16;5086884;28;20269;-84
2023/07/28 00:31:30;;;;;;;6.00;5.60;;;;;;;18.27;100.00;99581.25;5088672;28;20210;-84
2023/07/28 00:33:57;;;;;;;6.00;5.40;;;;;;;18.28;100.00;99574.00;5091735;28;20524;-83
2023/07/28 00:36:25;;;;;;;6.03;4.83;;;;;;;18.27;100.00;99572.34;5077835;28;20240;-84
2023/07/28 00:38:54;;;;;;;5.03;4.73;;;;;;;18.28;100.00;99585.63;5090600;28;20632;-85
2023/07/28 00:41:31;;;;;;;7.33;5.10;;;;;;;18.27;100.00;99583.94;5091593;28;20268;-84
2023/07/28 00:43:57;;;;;;;5.53;5.00;;;;;;;18.29;100.00;99581.09;5083440;28;20218;-84
2023/07/28 00:46:25;;;;;;;5.23;4.83;;;;;;;18.29;100.00;99579.22;5087054;28;20237;-85
2023/07/28 00:48:52;;;;;;;5.10;4.70;;;;;;;18.28;100.00;99582.94;5084229;28;20210;-85
2023/07/28 00:51:21;;;;;;;5.67;5.13;;;;;;;18.29;100.00;99586.47;5084207;28;20203;-85
2023/07/28 00:53:54;;;;;;;5.40;4.90;;;;;;;18.28;100.00;99590.19;5076388;28;20209;-84
2023/07/28 00:56:32;;;;;;;5.03;4.60;;;;;;;18.29;100.00;99595.41;5092496;28;20223;-84
2023/07/28 00:58:58;;;;;;;5.07;4.77;;;;;;;18.27;100.00;99594.72;5084826;28;20208;-82
2023/07/28 01:01:29;;;;;;;5.50;5.10;;;;;;;18.27;100.00;99585.84;5090681;28;20211;-84
2023/07/28 01:03:58;;;;;;;5.50;4.60;;;;;;;18.27;100.00;99589.34;5089899;28;20215;-85
2023/07/28 01:06:36;;;;;;;6.00;5.07;;;;;;;18.27;100.00;99581.25;5085631;28;20305;-84
2023/07/28 01:09:13;;;;;;;6.83;5.23;;;;;;;18.27;100.00;99585.84;5081795;28;20207;-84
2023/07/28 01:11:42;;;;;;;5.23;4.73;;;;;;;18.26;100.00;99571.50;5078553;28;20211;-84
2023/07/28 01:14:11;;;;;;;5.13;4.03;;;;;;;18.25;100.00;99575.22;5090560;28;20646;-84
2023/07/28 01:16:38;;;;;;;4.47;4.07;;;;;;;18.25;100.00;99577.06;5079503;28;20295;-84
2023/07/28 01:19:05;;;;;;;4.87;4.47;;;;;;;18.25;100.00;99577.06;5087628;28;20239;-84
2023/07/28 01:21:33;;;;;;;4.70;4.30;;;;;;;18.25;100.00;99577.91;5082916;28;20652;-85
2023/07/28 01:24:07;;;;;;;4.43;3.90;;;;;;;18.26;100.00;99565.28;5087111;28;20229;-84
2023/07/28 01:26:36;;;;;;;4.53;4.20;;;;;;;18.27;100.00;99572.34;5087767;28;20199;-84
2023/07/28 01:29:04;;;;;;;4.50;4.10;;;;;;;18.27;100.00;99573.16;5079215;28;20272;-83
2023/07/28 01:31:30;;;;;;;4.70;4.40;;;;;;;18.26;100.00;99571.50;5086233;28;20244;-84
2023/07/28 01:33:57;;;;;;;4.40;4.00;;;;;;;18.26;100.00;99566.13;5086498;28;20218;-84
2023/07/28 01:36:23;;;;;;;3.90;3.60;;;;;;;18.26;100.00;99559.91;5077387;28;20224;-84
2023/07/28 01:38:50;;;;;;;3.50;3.30;;;;;;;18.23;100.00;99561.06;5085064;28;20583;-83
2023/07/28 01:41:17;;;;;;;4.00;3.70;;;;;;;18.27;100.00;99566.97;5083138;28;20253;-84
2023/07/28 01:43:44;;;;;;;3.50;3.20;;;;;;;18.25;100.00;99577.06;5083600;28;20200;-85
2023/07/28 01:46:11;;;;;;;4.60;3.57;;;;;;;18.23;100.00;99565.63;5083010;28;20229;-85
2023/07/28 01:48:38;;;;;;;3.33;2.93;;;;;;;18.24;100.00;99568.16;5089481;28;20853;-85
2023/07/28 01:51:04;;;;;;;3.20;2.97;;;;;;;18.24;100.00;99578.09;5089264;28;20211;-83
2023/07/28 01:53:30;;;;;;;3.27;2.97;;;;;;;18.21;100.00;99563.09;5089601;28;20211;-82
2023/07/28 01:55:57;;;;;;;2.70;2.50;;;;;;;18.21;100.00;99555.00;5088400;28;20227;-84
2023/07/28 01:58:23;;;;;;;3.03;2.83;;;;;;;18.22;100.00;99558.56;5079162;28;20211;-85
2023/07/28 02:00:51;;;;;;;2.93;2.23;;;;;;;18.20;100.00;99565.97;5083351;28;20214;-85
2023/07/28 02:03:18;;;;;;;2.30;2.10;;;;;;;18.18;100.00;99568.81;5087932;28;20213;-85
2023/07/28 02:05:45;;;;;;;2.40;1.97;;;;;;;18.18;100.00;99565.28;5085704;28;20219;-84
2023/07/28 02:08:11;;;;;;;3.90;2.20;;;;;;;18.18;100.00;99579.59;5076449;28;20240;-85
2023/07/28 02:10:38;;;;;;;2.17;1.97;;;;;;;18.17;100.00;99569.84;5086694;28;20210;-85
2023/07/28 02:13:05;;;;;;;2.23;1.50;;;;;;;18.18;100.00;99565.28;5089735;28;20218;-84
2023/07/28 02:15:31;;;;;;;1.60;1.50;;;;;;;18.17;100.00;99572.53;5081357;28;20719;-84
2023/07/28 02:17:59;;;;;;;2.57;1.70;;;;;;;18.18;100.00;99579.59;5086815;28;20213;-84
2023/07/28 02:20:26;;;;;;;2.40;1.70;;;;;;;18.18;100.00;99579.59;5077960;28;20235;-84
2023/07/28 02:22:52;;;;;;;1.50;1.40;;;;;;;18.18;100.00;99573.38;5078673;28;20199;-84
2023/07/28 02:25:19;;;;;;;1.60;1.50;;;;;;;18.19;100.00;99580.44;5089296;28;20223;-84
2023/07/28 02:27:45;;;;;;;3.43;1.93;;;;;;;18.17;100.00;99574.38;5091477;28;20241;-84
2023/07/28 02:30:11;;;;;;;2.30;2.20;;;;;;;18.16;100.00;99576.25;5082042;28;20222;-84
2023/07/28 02:32:38;;;;;;;2.00;1.70;;;;;;;18.15;100.00;99577.25;5079059;28;20862;-85
2023/07/28 02:35:07;;;;;;;2.93;2.10;;;;;;;18.14;100.00;99574.72;5091926;28;20231;-85
2023/07/28 02:37:33;;;;;;;1.97;1.87;;;;;;;18.14;100.00;99575.56;5086198;28;20212;-85
2023/07/28 02:40:00;;;;;;;2.30;2.10;;;;;;;18.13;100.00;99575.72;5091851;28;20231;-86
2023/07/28 02:42:26;;;;;;;2.67;1.83;;;;;;;18.13;100.00;99575.72;5088471;28;20215;-86
2023/07/28 02:44:53;;;;;;;2.20;2.10;;;;;;;18.12;100.00;99577.59;5089223;28;20226;-84
2023/07/28 02:47:19;;;;;;;1.93;1.77;;;;;;;18.13;100.00;99573.88;5089421;28;20210;-85
2023/07/28 02:49:46;;;;;;;2.00;1.90;;;;;;;18.15;100.00;99581.78;5086520;28;20202;-85
2023/07/28 02:52:14;;;;;;;1.80;1.70;;;;;;;18.14;100.00;99580.97;5083000;28;20229;-84
2023/07/28 02:54:40;;;;;;;2.47;1.90;;;;;;;18.15;100.00;99577.25;5083719;28;20226;-85
2023/07/28 02:57:07;;;;;;;2.70;2.00;;;;;;;18.14;100.00;99583.66;5088050;28;20213;-84
2023/07/28 02:59:34;;;;;;;3.30;1.70;;;;;;;18.15;100.00;99584.50;5081855;28;20254;-85
2023/07/28 03:02:00;;;;;;;1.80;1.60;;;;;;;18.15;100.00;99590.72;5090183;28;20202;-84
2023/07/28 03:04:27;;;;;;;2.37;1.50;;;;;;;18.15;100.00;99590.72;5087385;28;20276;-85
2023/07/28 03:06:53;;;;;;;3.17;1.60;;;;;;;18.16;100.00;99599.66;5086099;28;20214;-85
2023/07/28 03:09:21;;;;;;;2.00;1.60;;;;;;;18.15;100.00;99596.13;5085841;28;20204;-85
2023/07/28 03:11:48;;;;;;;1.60;1.50;;;;;;;18.15;100.00;99596.13;5091784;28;20206;-85
2023/07/28 03:14:14;;;;;;;3.17;1.50;;;;;;;18.16;100.00;99599.66;5081974;28;20207;-84
2023/07/28 03:16:42;;;;;;;2.13;1.23;;;;;;;18.15;100.00;99601.50;5075118;28;20210;-85
2023/07/28 03:19:08;;;;;;;1.90;1.40;;;;;;;18.16;100.00;99603.19;5076931;28;20238;-86
2023/07/28 03:21:35;;;;;;;1.87;1.47;;;;;;;18.16;100.00;99603.19;5079326;28;20201;-85
2023/07/28 03:24:01;;;;;;;1.87;1.60;;;;;;;18.16;100.00;99607.75;5086317;28;20204;-85
2023/07/28 03:26:29;;;;;;;2.00;1.57;;;;;;;18.16;100.00;99600.50;5089878;28;20576;-85
2023/07/28 03:28:55;;;;;;;1.30;1.20;;;;;;;18.17;100.00;99599.47;5080278;28;20206;-84
2023/07/28 03:31:22;;;;;;;1.70;1.50;;;;;;;18.16;100.00;99605.88;5092012;28;20221;-86
2023/07/28 03:33:48;;;;;;;1.70;1.40;;;;;;;18.16;100.00;99610.44;5085160;28;20230;-85
2023/07/28 03:36:15;;;;;;;1.90;1.60;;;;;;;18.17;100.00;99612.13;5089352;28;20280;-84
2023/07/28 03:38:41;;;;;;;1.70;1.53;;;;;;;18.15;100.00;99614.13;5085321;28;20202;-83
2023/07/28 03:41:09;;;;;;;1.83;1.50;;;;;;;18.16;100.00;99615.81;5088146;28;20203;-85
2023/07/28 03:43:37;;;;;;;1.70;1.60;;;;;;;18.16;100.00;99613.13;5077734;28;20210;-86
2023/07/28 03:46:03;;;;;;;1.60;1.50;;;;;;;18.16;100.00;99607.75;5092171;28;20229;-85
2023/07/28 03:48:30;;;;;;;1.67;1.57;;;;;;;18.14;100.00;99615.16;5082523;28;20632;-84
2023/07/28 03:50:56;;;;;;;2.10;2.00;;;;;;;18.14;100.00;99616.00;5081478;28;20669;-85
2023/07/28 03:53:22;;;;;;;9.20;2.17;;;;;;;18.16;100.00;99616.66;5089250;28;20194;-84
2023/07/28 03:55:49;;;;;;;1.97;1.80;;;;;;;18.14;100.00;99616.00;5088219;28;20224;-84
2023/07/28 03:58:15;;;;;;;2.33;1.90;;;;;;;18.17;100.00;99614.81;5085480;28;20603;-84
2023/07/28 04:00:43;;;;;;;2.27;2.10;;;;;;;18.15;100.00;99612.28;5087313;28;20220;-84
2023/07/28 04:03:10;;;;;;;2.20;1.77;;;;;;;18.16;100.00;99615.81;5086793;28;20737;-83
2023/07/28 04:05:37;;;;;;;2.10;2.00;;;;;;;18.16;100.00;99619.34;5088266;28;20616;-85
2023/07/28 04:08:04;;;;;;;2.00;1.90;;;;;;;18.16;100.00;99621.22;5084751;28;20208;-84
2023/07/28 04:10:30;;;;;;;2.20;2.10;;;;;;;18.13;100.00;99618.84;5086532;28;20201;-84
2023/07/28 04:12:57;;;;;;;2.80;2.37;;;;;;;18.13;100.00;99602.69;5088514;28;20219;-86
2023/07/28 04:15:23;;;;;;;2.10;2.00;;;;;;;18.14;100.00;99605.22;5089514;28;20236;-85
2023/07/28 04:17:51;;;;;;;2.63;2.10;;;;;;;18.17;100.00;99614.81;5078465;28;20210;-83
2023/07/28 04:20:17;;;;;;;3.20;2.60;;;;;;;18.17;100.00;99620.19;5085264;28;20621;-85
2023/07/28 04:22:44;;;;;;;2.30;2.13;;;;;;;18.18;100.00;99624.59;5089323;28;20674;-85
2023/07/28 04:25:10;;;;;;;2.20;2.10;;;;;;;18.19;100.00;99623.56;5078268;28;20231;-86
2023/07/28 04:27:37;;;;;;;2.10;2.00;;;;;;;18.19;100.00;99623.56;5088744;28;20213;-85
2023/07/28 04:30:04;;;;;;;2.00;1.90;;;;;;;18.18;100.00;99624.59;5082001;28;20644;-84
2023/07/28 04:32:30;;;;;;;1.80;1.70;;;;;;;18.19;100.00;99623.56;5083224;28;20215;-83
2023/07/28 04:34:58;;;;;;;1.47;1.30;;;;;;;18.21;100.00;99635.03;5089268;28;20233;-85
2023/07/28 04:37:25;;;;;;;1.50;1.40;;;;;;;18.19;100.00;99628.97;5083861;28;20204;-85
2023/07/28 04:39:51;;;;;;;1.40;1.30;;;;;;;18.20;100.00;99619.88;5089754;28;20306;-86
2023/07/28 04:42:18;;;;;;;2.73;1.47;;;;;;;18.21;100.00;99621.56;5086002;28;20276;-84
2023/07/28 04:44:45;;;;;;;1.67;1.27;;;;;;;18.24;100.00;99626.59;5090307;28;20232;-86
2023/07/28 04:47:12;;;;;;;1.20;1.10;;;;;;;18.24;100.00;99616.66;5084510;28;20203;-84
2023/07/28 04:49:38;;;;;;;1.30;1.20;;;;;;;18.25;100.00;99622.91;5087706;28;20213;-85
2023/07/28 04:52:07;;;;;;;1.40;1.30;;;;;;;18.24;100.00;99626.59;5079043;28;20608;-85
2023/07/28 04:54:34;;;;;;;1.40;1.13;;;;;;;18.25;100.00;99639.06;5087547;28;20606;-85
2023/07/28 04:57:00;;;;;;;1.30;1.20;;;;;;;18.22;100.00;99639.41;5086977;28;20573;-84
2023/07/28 04:59:26;;;;;;;1.50;1.40;;;;;;;18.23;100.00;99644.63;5087253;28;20253;-85
2023/07/28 05:01:53;;;;;;;2.27;1.70;;;;;;;18.26;100.00;99646.13;5086914;28;20658;-85
2023/07/28 05:04:20;;;;;;;1.77;1.67;;;;;;;18.24;100.00;99648.16;5081553;28;20811;-85
2023/07/28 05:06:46;;;;;;;3.17;1.80;;;;;;;18.21;100.00;99646.66;5085348;28;20198;-85
2023/07/28 05:09:13;;;;;;;4.07;1.90;;;;;;;18.21;100.00;99645.81;5089863;28;20210;-85
2023/07/28 05:11:40;;;;;;;2.83;2.63;;;;;;;18.20;100.00;99654.91;5078955;28;20226;-86
2023/07/28 05:14:08;;;;;;;2.43;2.23;;;;;;;18.19;100.00;99647.81;5082731;28;20792;-85
2023/07/28 05:16:35;;;;;;;22.03;5.33;;;;;;;18.18;100.00;99651.53;5073988;28;20242;-85
2023/07/28 05:19:01;;;;;;;3.70;3.23;;;;;;;18.17;100.00;99656.06;5082458;28;20569;-85
2023/07/28 05:21:28;;;;;;;2.87;2.63;;;;;;;18.14;100.00;99658.25;5080472;28;20242;-86
2023/07/28 05:23:55;;;;;;;3.07;2.70;;;;;;;18.14;100.00;99660.97;5088481;28;20229;-84
2023/07/28 05:26:23;;;;;;;2.90;2.47;;;;;;;18.14;100.00;99663.66;5089172;28;20232;-85
2023/07/28 05:28:50;;;;;;;3.03;2.77;;;;;;;18.12;100.00;99669.22;5082223;28;20590;-85
2023/07/28 05:31:16;;;;;;;3.00;2.80;;;;;;;18.13;100.00;99661.97;5080037;28;20229;-85
2023/07/28 05:33:43;;;;;;;3.17;2.97;;;;;;;18.13;100.00;99670.03;5083061;28;20203;-84
2023/07/28 05:36:09;;;;;;;5.60;3.87;;;;;;;18.15;100.00;99676.13;5089403;28;20229;-84
2023/07/28 05:38:36;;;;;;;3.30;3.00;;;;;;;18.16;100.00;99672.41;5092930;28;20202;-84
2023/07/28 05:41:03;;;;;;;3.43;3.20;;;;;;;18.16;100.00;99677.81;5089131;28;20587;-84
2023/07/28 05:43:31;;;;;;;3.53;3.23;;;;;;;18.18;100.00;99682.00;5088839;28;20203;-84
2023/07/28 05:45:59;;;;;;;3.53;3.23;;;;;;;18.20;100.00;99681.84;5082174;28;20227;-84
2023/07/28 05:48:25;;;;;;;3.33;3.03;;;;;;;18.21;100.00;99683.53;5086464;28;20553;-85
2023/07/28 05:50:53;;;;;;;3.37;3.10;;;;;;;18.22;100.00;99687.91;5083715;28;20203;-84
2023/07/28 05:53:21;;;;;;;3.00;2.80;;;;;;;18.22;100.00;99688.75;5086206;28;20261;-84
2023/07/28 05:55:48;;;;;;;3.40;3.10;;;;;;;18.22;100.00;99690.59;5087598;28;20907;-85
2023/07/28 05:58:15;;;;;;;3.30;2.93;;;;;;;18.21;100.00;99691.63;5090043;28;20946;-83
2023/07/28 06:00:51;;;;;;;2.90;2.60;;;;;;;18.25;100.00;99687.59;5090626;28;20714;-84
2023/07/28 06:03:18;;;;;;;3.60;3.30;;;;;;;18.27;100.00;99685.56;5099183;28;20207;-84
2023/07/28 06:05:44;;;;;;;3.03;2.67;;;;;;;18.30;100.00;99690.59;5095290;28;20216;-85
2023/07/28 06:08:11;;;;;;;4.30;3.70;;;;;;;18.34;100.00;99687.38;5091452;28;20234;-84
2023/07/28 06:10:38;;;;;;;3.40;3.20;;;;;;;18.40;100.00;99685.88;5089754;28;20223;-84
2023/07/28 06:13:04;;;;;;;4.17;3.87;;;;;;;18.45;100.00;99694.28;5091121;28;20212;-84
2023/07/28 06:15:31;;;;;;;3.40;3.10;;;;;;;18.50;100.00;99689.22;5083132;28;20233;-85
2023/07/28 06:17:59;;;;;;;3.57;3.27;;;;;;;18.55;100.00;99686.00;5088160;28;20203;-85
2023/07/28 06:20:25;;;;;;;3.63;3.33;;;;;;;18.59;100.00;99696.31;5091159;28;20225;-84
2023/07/28 06:22:52;;;;;;;3.60;3.30;;;;;;;18.62;100.00;99687.91;5083844;28;20678;-84
2023/07/28 06:25:18;;;;;;;3.83;3.53;;;;;;;18.67;100.00;99692.75;5091642;28;20216;-84
2023/07/28 06:27:45;;;;;;;3.97;3.40;;;;;;;18.69;100.00;99696.97;5087106;28;20203;-84
2023/07/28 06:30:12;;;;;;;4.60;3.87;;;;;;;18.72;100.00;99701.19;5093047;28;20204;-84
2023/07/28 06:32:39;;;;;;;3.93;3.63;;;;;;;18.73;100.00;99694.78;5084500;28;20207;-84
2023/07/28 06:35:09;;;;;;;3.47;3.27;;;;;;;18.77;100.00;99701.50;5084731;28;20221;-85
2023/07/28 06:37:36;;;;;;;4.07;3.07;;;;;;;18.80;100.00;99703.03;5092446;28;20292;-84
2023/07/28 06:40:19;;;;;;;5.13;3.37;;;;;;;18.84;100.00;99709.72;5090296;28;20226;-85
2023/07/28 06:42:46;;;;;;;3.40;3.20;;;;;;;18.86;100.00;99713.94;5089650;28;20592;-84
2023/07/28 06:45:13;;;;;;;4.97;3.27;;;;;;;18.89;100.00;99719.00;5091764;28;20233;-84
2023/07/28 06:47:40;;;;;;;4.00;3.70;;;;;;;18.91;100.00;99716.97;5093611;28;20219;-84
2023/07/28 06:50:08;;;;;;;4.10;3.80;;;;;;;18.92;100.00;99729.44;5079435;28;20204;-84
2023/07/28 06:52:36;;;;;;;4.80;4.40;;;;;;;18.92;100.00;99720.50;5086691;28;20584;-83
2023/07/28 06:55:03;;;;;;;4.10;3.70;;;;;;;18.93;100.00;99724.91;5084414;28;20218;-85
2023/07/28 06:57:30;;;;;;;4.50;4.10;;;;;;;18.94;100.00;99732.81;5088596;28;20210;-84
2023/07/28 06:59:57;;;;;;;4.90;4.50;;;;;;;18.95;100.00;99737.22;5082916;28;20203;-85
2023/07/28 07:02:23;;;;;;;4.57;4.17;;;;;;;18.94;100.00;99745.47;5086507;28;21122;-84
2023/07/28 07:04:50;;;;;;;5.13;4.47;;;;;;;18.97;100.00;99753.22;5091691;28;20235;-84
2023/07/28 07:07:18;;;;;;;4.43;4.13;;;;;;;18.98;100.00;99749.53;5089542;28;20230;-84
2023/07/28 07:09:45;;;;;;;5.03;4.30;;;;;;;18.98;100.00;99749.53;5089039;28;20222;-85
2023/07/28 07:12:19;;;;;;;4.97;4.43;;;;;;;19.01;100.00;99751.84;5087364;28;20779;-84
2023/07/28 07:14:46;;;;;;;4.47;4.13;;;;;;;19.04;100.00;99762.31;5079521;28;20234;-85
2023/07/28 07:17:12;;;;;;;5.60;4.47;;;;;;;19.06;100.00;99757.56;5085874;28;20233;-83
2023/07/28 07:19:39;;;;;;;5.03;4.63;;;;;;;19.10;100.00;99763.47;5092203;28;20211;-83
2023/07/28 07:22:06;;;;;;;4.93;4.53;;;;;;;19.13;100.00;99766.66;5087566;28;20238;-85
2023/07/28 07:24:33;;;;;;;4.97;4.50;;;;;;;19.16;100.00;99763.63;5084994;28;20227;-84
2023/07/28 07:27:00;;;;;;;4.77;4.37;;;;;;;19.18;100.00;99769.66;5090832;28;20195;-85
2023/07/28 07:29:26;;;;;;;4.83;4.43;;;;;;;19.20;100.00;99770.34;5083891;28;20201;-84
2023/07/28 07:31:55;;;;;;;4.93;4.53;;;;;;;19.26;100.00;99777.75;5093867;28;20195;-84
2023/07/28 07:34:23;;;;;;;4.17;3.87;;;;;;;19.28;100.00;99770.31;5090418;28;20199;-84
2023/07/28 07:36:49;;;;;;;4.87;4.53;;;;;;;19.29;100.00;99781.97;5093372;28;20211;-84
2023/07/28 07:39:17;;;;;;;4.70;4.30;;;;;;;19.28;100.00;99772.19;5093092;28;20200;-85
2023/07/28 07:41:46;;;;;;;4.43;3.90;;;;;;;19.29;100.00;99774.72;5089573;28;20230;-84
2023/07/28 07:44:12;;;;;;;4.53;4.13;;;;;;;19.30;100.00;99772.84;5085235;28;20570;-84
2023/07/28 07:46:39;;;;;;;4.90;4.50;;;;;;;19.33;100.00;99773.34;5095222;28;20213;-81
2023/07/28 07:49:05;;;;;;;4.70;4.40;;;;;;;19.38;100.00;99776.34;5088679;28;20195;-82
2023/07/28 07:51:33;;;;;;;4.60;4.30;;;;;;;19.41;100.00;99772.47;5088349;28;20286;-81
2023/07/28 07:53:59;;;;;;;4.87;4.57;;;;;;;19.50;100.00;99784.97;5093469;28;20207;-82
2023/07/28 07:56:27;;;;;;;5.67;5.17;;;;;;;19.60;100.00;99773.94;5095245;28;20234;-82
2023/07/28 07:58:55;;;;;;;4.23;3.70;;;;;;;19.74;100.00;99781.28;5097232;28;20662;-82
2023/07/28 08:01:22;;;;;;;5.17;4.10;;;;;;;19.81;99.52;99782.28;5086424;28;20231;-81
2023/07/28 08:03:48;;;;;;;3.90;3.60;;;;;;;19.90;98.38;99778.47;5096890;28;20794;-83
2023/07/28 08:06:15;;;;;;;4.18;3.80;;;;;;;19.99;97.33;99777.44;5087390;28;20220;-82
2023/07/28 08:08:42;;;;;;;4.00;3.70;;;;;;;20.05;95.19;99781.28;5089939;28;20206;-82
2023/07/28 08:11:08;;;;;;;3.90;3.60;;;;;;;20.13;94.96;99773.09;5094303;28;20203;-82
2023/07/28 08:13:35;;;;;;;4.10;3.80;;;;;;;20.25;94.77;99779.78;5093382;28;20202;-82
2023/07/28 08:16:03;;;;;;;3.83;3.53;;;;;;;20.42;93.84;99785.94;5092923;28;20454;-81
2023/07/28 08:18:29;;;;;;;3.20;2.93;;;;;;;20.55;92.94;99783.47;5093408;28;20207;-82
2023/07/28 08:20:56;;;;;;;3.60;3.30;;;;;;;20.67;92.00;99782.00;5091589;28;20231;-83
2023/07/28 08:23:22;;;;;;;3.95;3.13;;;;;;;20.81;91.12;99783.03;5087141;28;20200;-82
2023/07/28 08:25:49;;;;;;;3.22;2.92;;;;;;;20.98;89.60;99787.25;5084299;28;20222;-85
2023/07/28 08:28:15;;;;;;;3.10;2.80;;;;;;;21.06;86.36;99783.66;5094237;28;20222;-85
2023/07/28 08:30:42;;;;;;;3.28;2.97;;;;;;;21.17;85.74;99785.88;5088618;28;20196;-82
2023/07/28 08:33:09;;;;;;;5.20;2.90;;;;;;;21.31;85.33;99795.09;5084373;28;20203;-84
2023/07/28 08:35:36;;;;;;;3.20;2.92;;;;;;;21.46;84.25;99796.75;5083203;28;20258;-84
2023/07/28 08:38:03;;;;;;;2.70;2.50;;;;;;;21.70;83.72;99789.34;5085212;28;20216;-84
2023/07/28 08:40:29;;;;;;;3.97;2.70;;;;;;;21.88;81.10;99784.34;5087790;28;20250;-84
2023/07/28 08:42:56;;;;;;;3.05;2.75;;;;;;;22.03;79.23;99790.63;5088276;28;20203;-85
2023/07/28 08:45:24;;;;;;;2.55;2.42;;;;;;;22.21;78.88;99794.78;5088293;28;21153;-84
2023/07/28 08:47:51;;;;;;;2.53;2.33;;;;;;;22.37;78.11;99795.34;5083665;28;21353;-84
2023/07/28 08:50:19;;;;;;;2.28;2.05;;;;;;;22.55;77.16;99811.16;5087901;28;20203;-84
2023/07/28 08:52:45;;;;;;;2.53;2.33;;;;;;;22.63;74.86;99802.03;5093369;28;20553;-84
2023/07/28 08:55:13;;;;;;;2.42;2.22;;;;;;;22.69;73.90;99803.97;5090229;28;20228;-84
2023/07/28 08:57:39;;;;;;;2.15;2.05;;;;;;;22.78;73.73;99805.53;5090026;28;20660;-83
2023/07/28 09:00:13;;;;;;;2.65;2.45;;;;;;;22.91;72.87;99810.25;5088173;28;20204;-84
2023/07/28 09:02:40;;;;;;;2.03;1.92;;;;;;;22.99;71.95;99807.38;5089276;28;20321;-83
2023/07/28 09:05:08;;;;;;;4.20;2.20;;;;;;;23.04;71.11;99810.34;5079055;28;20212;-83
2023/07/28 09:07:38;;;;;;;2.22;2.03;;;;;;;23.15;71.64;99817.94;5088876;28;20203;-84
2023/07/28 09:10:06;;;;;;;2.03;1.92;;;;;;;23.22;70.33;99810.69;5087487;28;20203;-84
2023/07/28 09:12:33;;;;;;;2.63;2.25;;;;;;;23.28;70.16;99814.50;5090610;28;20239;-84
2023/07/28 09:14:59;;;;;;;2.00;1.90;;;;;;;23.32;69.45;99807.59;5086456;28;20231;-84
2023/07/28 09:17:26;;;;;;;1.73;1.63;;;;;;;23.31;68.12;99816.78;5087874;28;20215;-83
2023/07/28 09:19:53;;;;;;;2.20;2.05;;;;;;;23.29;68.66;99819.69;5091738;28;20226;-84
2023/07/28 09:22:21;;;;;;;2.30;2.10;;;;;;;23.32;68.97;99818.47;5091602;28;20230;-83
2023/07/28 09:24:49;;;;;;;2.53;2.40;;;;;;;23.35;68.95;99827.06;5093078;28;20454;-83
2023/07/28 09:27:23;;;;;;;2.00;1.90;;;;;;;23.34;68.73;99822.66;5094954;28;20207;-84
2023/07/28 09:29:50;;;;;;;2.00;1.90;;;;;;;23.39;68.92;99830.22;5089819;28;20199;-83
2023/07/28 09:32:26;;;;;;;1.98;1.88;;;;;;;23.36;67.92;99828.75;5088371;28;20192;-84
2023/07/28 09:35:07;;;;;;;2.30;2.20;;;;;;;23.38;68.53;99832.09;5093026;28;20230;-84
2023/07/28 09:37:34;;;;;;;2.22;2.03;;;;;;;23.47;68.76;99832.75;5091157;28;20215;-84
2023/07/28 09:40:04;;;;;;;2.65;2.20;;;;;;;23.54;69.00;99829.09;5087553;28;20230;-84
2023/07/28 09:42:31;;;;;;;2.22;2.00;;;;;;;23.61;68.34;99834.56;5095617;28;20287;-83
2023/07/28 09:44:58;;;;;;;2.28;2.13;;;;;;;23.57;66.94;99838.72;5089309;28;20224;-84
2023/07/28 09:47:25;;;;;;;2.42;2.22;;;;;;;23.54;66.72;99834.53;5092207;28;20211;-83
2023/07/28 09:49:52;;;;;;;1.60;1.50;;;;;;;23.57;67.40;99833.28;5096275;28;20199;-83
2023/07/28 09:52:20;;;;;;;2.13;1.75;;;;;;;23.60;67.51;99842.94;5091253;28;20229;-83
2023/07/28 09:54:52;;;;;;;1.95;1.85;;;;;;;23.59;66.47;99833.94;5089380;28;20226;-83
2023/07/28 09:57:21;;;;;;;2.22;2.03;;;;;;;23.59;66.41;99831.22;5088122;28;20203;-84
2023/07/28 09:59:48;;;;;;;14.20;3.50;;;;;;;23.66;67.05;99833.94;5096530;28;20319;-83
2023/07/28 10:02:15;;;;;;;1.70;1.60;;;;;;;23.72;66.79;99839.44;5088297;28;20223;-83
2023/07/28 10:04:42;;;;;;;2.70;2.10;;;;;;;23.77;66.32;99836.13;5095230;28;20336;-84
2023/07/28 10:07:10;;;;;;;1.92;1.83;;;;;;;23.80;66.00;99833.84;5094779;28;20201;-84
2023/07/28 10:09:37;;;;;;;2.40;1.77;;;;;;;23.82;65.67;99842.63;5091920;28;20267;-84
2023/07/28 10:12:05;;;;;;;2.00;1.90;;;;;;;23.88;65.66;99835.53;5095856;28;20212;-84
2023/07/28 10:14:37;;;;;;;1.90;1.80;;;;;;;23.97;65.86;99839.75;5092941;28;20208;-84
2023/07/28 10:17:05;;;;;;;2.85;2.10;;;;;;;24.08;65.17;99835.59;5089995;28;20223;-85
2023/07/28 10:19:35;;;;;;;1.83;1.70;;;;;;;24.19;64.78;99832.28;5093215;28;20600;-85
2023/07/28 10:22:02;;;;;;;1.60;1.50;;;;;;;24.29;64.04;99843.66;5085006;28;20929;-85
2023/07/28 10:24:50;;;;;;;2.45;1.60;;;;;;;24.40;63.78;99843.03;5086102;28;20203;-84
2023/07/28 10:27:29;;;;;;;1.55;1.27;;;;;;;24.55;63.73;99845.56;5090885;28;20196;-84
2023/07/28 10:30:04;;;;;;;1.77;1.67;;;;;;;24.65;62.61;99859.63;5092660;28;20196;-85
2023/07/28 10:32:38;;;;;;;1.88;1.77;;;;;;;24.78;62.99;99854.19;5092773;28;20219;-84
2023/07/28 10:35:08;;;;;;;1.70;1.60;;;;;;;24.88;61.78;99841.03;5087961;28;20272;-85
2023/07/28 10:37:36;;;;;;;1.90;1.80;;;;;;;24.96;61.81;99856.34;5094562;28;20207;-84
2023/07/28 10:40:27;;;;;;;1.83;1.73;;;;;;;25.05;60.79;99849.66;5092404;28;20212;-84
2023/07/28 10:42:54;;;;;;;1.70;1.60;;;;;;;25.15;60.85;99849.19;5086124;28;20743;-84
2023/07/28 10:45:23;;;;;;;1.58;1.48;;;;;;;25.30;59.90;99857.16;5093424;28;20224;-84
2023/07/28 10:47:50;;;;;;;1.75;1.40;;;;;;;25.36;58.49;99851.69;5093716;28;20205;-82
2023/07/28 10:50:16;;;;;;;1.27;1.23;;;;;;;25.44;59.10;99864.28;5091487;28;20208;-83
2023/07/28 10:52:44;;;;;;;1.73;1.63;;;;;;;25.53;58.80;99857.53;5092822;28;20845;-85
2023/07/28 10:55:14;;;;;;;1.58;1.42;;;;;;;25.56;58.19;99862.56;5085222;28;20232;-85
2023/07/28 10:57:43;;;;;;;1.70;1.50;;;;;;;25.60;58.96;99863.81;5082749;28;20257;-85
2023/07/28 11:00:11;;;;;;;2.72;1.90;;;;;;;25.69;59.32;99850.81;5091145;28;20226;-85
2023/07/28 11:02:42;;;;;;;1.83;1.73;;;;;;;25.74;58.57;99851.84;5089560;28;20228;-86
2023/07/28 11:05:12;;;;;;;1.73;1.63;;;;;;;25.80;57.67;99861.88;5087386;28;20231;-85
2023/07/28 11:07:39;;;;;;;1.60;1.50;;;;;;;25.86;57.83;99861.03;5086077;28;20200;-85
2023/07/28 11:10:07;;;;;;;2.03;1.92;;;;;;;25.84;57.40;99854.13;5088302;28;20203;-85
2023/07/28 11:12:34;;;;;;;2.08;1.95;;;;;;;25.78;57.46;99850.38;5086953;28;20208;-85
2023/07/28 11:15:00;;;;;;;2.85;2.50;;;;;;;25.78;57.76;99861.28;5088629;28;20224;-85
2023/07/28 11:17:27;;;;;;;2.58;2.38;;;;;;;25.78;57.87;99860.44;5090169;28;20200;-85
2023/07/28 11:19:56;;;;;;;3.35;2.40;;;;;;;25.75;58.01;99856.25;5088164;28;20204;-84
2023/07/28 11:22:22;;;;;;;1.70;1.60;;;;;;;25.78;57.97;99857.72;5089229;28;20219;-85
2023/07/28 11:24:52;;;;;;;1.60;1.50;;;;;;;25.73;56.90;99855.63;5087124;28;20223;-84
2023/07/28 11:27:18;;;;;;;2.03;1.55;;;;;;;25.68;56.17;99849.97;5081749;28;20203;-83
2023/07/28 11:29:45;;;;;;;2.38;1.83;;;;;;;25.65;56.00;99857.75;5083659;28;20209;-85
2023/07/28 11:32:11;;;;;;;2.22;2.03;;;;;;;25.60;56.85;99848.31;5081267;28;20200;-85